createdAt,value
2022-12-18T00:02:06.297Z,49.10
2022-12-18T00:04:32.827Z,48.43
2022-12-18T00:06:59.266Z,50.33
2022-12-18T00:09:25.892Z,44.93
2022-12-18T00:14:43.130Z,48.80
2022-12-18T00:17:10.071Z,52.53
2022-12-18T00:19:36.489Z,47.73
2022-12-18T00:22:02.918Z,52.83
2022-12-18T00:24:29.339Z,44.07
2022-12-18T00:26:55.803Z,46.40
2022-12-18T00:29:27.093Z,47.07
2022-12-18T00:31:53.624Z,46.20
2022-12-18T00:34:20.200Z,47.57
2022-12-18T00:36:48.433Z,48.67
2022-12-18T00:39:14.910Z,47.13
2022-12-18T00:42:00.228Z,47.13
2022-12-18T00:44:27.705Z,41.57
2022-12-18T00:46:54.243Z,42.07
2022-12-18T00:49:21.150Z,48.43
2022-12-18T00:51:48.176Z,45.83
2022-12-18T00:54:15.218Z,44.87
2022-12-18T00:56:49.808Z,44.50
2022-12-18T00:59:18.124Z,44.50
2022-12-18T01:01:45.682Z,49.30
2022-12-18T01:04:12.608Z,40.17
2022-12-18T01:06:39.092Z,44.33
2022-12-18T01:09:06.738Z,43.40
2022-12-18T01:11:33.210Z,47.60
2022-12-18T01:14:01.167Z,45.53
2022-12-18T01:16:27.810Z,40.73
2022-12-18T01:18:55.538Z,45.43
2022-12-18T01:21:22.772Z,43.50
2022-12-18T01:23:52.949Z,41.80
2022-12-18T01:26:19.740Z,40.70
2022-12-18T01:28:46.175Z,45.10
2022-12-18T01:31:20.121Z,39.60
2022-12-18T01:33:46.603Z,39.60
2022-12-18T01:36:24.512Z,38.37
2022-12-18T01:38:51.737Z,40.33
2022-12-18T01:41:23.683Z,41.07
2022-12-18T01:43:53.238Z,43.77
2022-12-18T01:46:21.938Z,35.60
2022-12-18T01:48:50.583Z,41.17
2022-12-18T01:51:17.249Z,38.17
2022-12-18T01:53:44.784Z,39.43
2022-12-18T01:56:15.224Z,41.07
2022-12-18T01:59:01.674Z,39.53
2022-12-18T02:01:28.401Z,38.43
2022-12-18T02:03:55.032Z,34.17
2022-12-18T02:06:28.597Z,39.60
2022-12-18T02:09:11.425Z,38.00
2022-12-18T02:11:43.815Z,37.43
2022-12-18T02:14:26.160Z,38.30
2022-12-18T02:16:54.756Z,36.27
2022-12-18T02:20:04.001Z,41.10
2022-12-18T02:22:49.060Z,40.93
2022-12-18T02:25:30.867Z,40.17
2022-12-18T02:28:00.810Z,40.10
2022-12-18T02:30:28.424Z,36.10
2022-12-18T02:32:55.456Z,43.43
2022-12-18T02:35:25.083Z,36.60
2022-12-18T02:37:54.908Z,38.67
2022-12-18T02:40:23.336Z,33.80
2022-12-18T02:42:49.977Z,35.27
2022-12-18T02:45:16.729Z,41.57
2022-12-18T02:47:45.089Z,36.10
2022-12-18T02:50:34.338Z,35.73
2022-12-18T02:53:19.023Z,36.50
2022-12-18T02:56:08.527Z,32.23
2022-12-18T02:58:58.447Z,37.07
2022-12-18T03:02:00.230Z,36.87
2022-12-18T03:04:31.599Z,33.53
2022-12-18T03:07:02.879Z,29.43
2022-12-18T03:09:34.298Z,32.33
2022-12-18T03:12:24.811Z,36.50
2022-12-18T03:15:03.396Z,33.93
2022-12-18T03:17:32.557Z,28.63
2022-12-18T03:20:02.041Z,33.33
2022-12-18T03:22:31.325Z,34.37
2022-12-18T03:24:58.431Z,32.37
2022-12-18T03:27:25.620Z,29.97
2022-12-18T03:30:08.441Z,28.60
2022-12-18T03:32:41.592Z,29.73
2022-12-18T03:35:09.089Z,28.87
2022-12-18T03:37:35.951Z,29.10
2022-12-18T03:40:02.931Z,30.27
2022-12-18T03:42:46.715Z,31.00
2022-12-18T03:45:24.516Z,28.93
2022-12-18T03:48:07.487Z,28.47
2022-12-18T03:50:43.085Z,33.40
2022-12-18T03:53:15.163Z,30.20
2022-12-18T03:55:42.028Z,29.00
2022-12-18T03:58:09.161Z,30.07
2022-12-18T04:00:35.872Z,28.50
2022-12-18T04:03:03.053Z,28.23
2022-12-18T04:05:29.904Z,29.43
2022-12-18T04:07:57.450Z,27.93
2022-12-18T04:10:23.946Z,29.37
2022-12-18T04:12:50.346Z,30.40
2022-12-18T04:15:16.772Z,27.57
2022-12-18T04:17:50.677Z,28.73
2022-12-18T04:20:17.852Z,27.80
2022-12-18T04:22:44.257Z,26.37
2022-12-18T04:25:10.691Z,25.57
2022-12-18T04:27:37.139Z,27.30
2022-12-18T04:30:04.380Z,29.33
2022-12-18T04:32:30.812Z,28.70
2022-12-18T04:34:57.481Z,26.93
2022-12-18T04:37:23.907Z,26.60
2022-12-18T04:39:50.320Z,25.40
2022-12-18T04:42:16.762Z,24.57
2022-12-18T04:44:43.349Z,24.67
2022-12-18T04:47:09.817Z,25.37
2022-12-18T04:49:36.245Z,25.40
2022-12-18T04:52:02.650Z,27.63
2022-12-18T04:54:29.077Z,27.17
2022-12-18T04:56:55.640Z,25.63
2022-12-18T04:59:22.044Z,26.10
2022-12-18T05:01:48.723Z,23.77
2022-12-18T05:04:15.305Z,25.57
2022-12-18T05:06:41.873Z,25.73
2022-12-18T05:09:08.306Z,24.73
2022-12-18T05:11:34.737Z,28.10
2022-12-18T05:14:01.159Z,27.73
2022-12-18T05:16:27.731Z,21.90
2022-12-18T05:18:54.477Z,21.30
2022-12-18T05:21:20.899Z,24.93
2022-12-18T05:23:47.440Z,22.37
2022-12-18T05:26:18.519Z,25.73
2022-12-18T05:28:45.524Z,22.53
2022-12-18T05:31:12.228Z,24.73
2022-12-18T05:33:39.302Z,20.00
2022-12-18T05:36:08.187Z,24.67
2022-12-18T05:38:36.994Z,20.90
2022-12-18T05:41:04.161Z,22.90
2022-12-18T05:43:30.988Z,25.13
2022-12-18T05:45:58.440Z,23.33
2022-12-18T05:48:24.999Z,18.83
2022-12-18T05:50:51.847Z,23.37
2022-12-18T05:53:20.275Z,22.33
2022-12-18T05:55:47.268Z,23.00
2022-12-18T05:58:14.627Z,21.43
2022-12-18T06:00:45.074Z,22.50
2022-12-18T06:03:12.812Z,19.70
2022-12-18T06:05:41.729Z,23.03
2022-12-18T06:08:08.322Z,19.37
2022-12-18T06:10:34.875Z,19.63
2022-12-18T06:13:01.788Z,19.97
2022-12-18T06:15:28.226Z,24.87
2022-12-18T06:17:54.656Z,21.47
2022-12-18T06:20:21.213Z,22.47
2022-12-18T06:22:47.582Z,21.33
2022-12-18T06:25:14.009Z,25.60
2022-12-18T06:27:40.576Z,20.67
2022-12-18T06:30:09.613Z,19.03
2022-12-18T06:32:35.998Z,22.03
2022-12-18T06:35:02.402Z,20.93
2022-12-18T06:37:29.182Z,21.87
2022-12-18T06:39:55.633Z,23.57
2022-12-18T06:42:23.519Z,20.50
2022-12-18T06:44:50.119Z,19.97
2022-12-18T06:47:16.535Z,23.90
2022-12-18T06:49:42.989Z,25.67
2022-12-18T06:52:09.569Z,17.07
2022-12-18T06:54:35.965Z,20.73
2022-12-18T06:57:02.342Z,19.47
2022-12-18T06:59:28.970Z,19.30
2022-12-18T07:01:55.780Z,19.43
2022-12-18T07:04:22.326Z,22.27
2022-12-18T07:06:48.783Z,22.00
2022-12-18T07:09:15.171Z,21.43
2022-12-18T07:11:41.533Z,19.33
2022-12-18T07:14:07.949Z,21.10
2022-12-18T07:16:34.332Z,19.73
2022-12-18T07:19:00.853Z,20.30
2022-12-18T07:21:27.312Z,19.80
2022-12-18T07:23:53.799Z,20.47
2022-12-18T07:26:21.336Z,19.40
2022-12-18T07:28:47.842Z,22.47
2022-12-18T07:31:21.647Z,17.60
2022-12-18T07:33:48.973Z,21.70
2022-12-18T07:36:15.779Z,18.53
2022-12-18T07:38:42.293Z,22.77
2022-12-18T07:41:10.772Z,19.73
2022-12-18T07:43:38.279Z,20.10
2022-12-18T07:46:05.629Z,21.20
2022-12-18T07:48:32.348Z,26.10
2022-12-18T07:51:02.732Z,20.93
2022-12-18T07:53:29.460Z,18.43
2022-12-18T07:56:25.920Z,25.73
2022-12-18T07:58:48.442Z,19.90
2022-12-18T08:01:15.668Z,25.80
2022-12-18T08:03:42.525Z,22.13
2022-12-18T08:06:10.507Z,17.43
2022-12-18T08:08:37.450Z,24.03
2022-12-18T08:11:04.130Z,23.40
2022-12-18T08:13:30.557Z,28.33
2022-12-18T08:15:58.935Z,24.33
2022-12-18T08:18:27.291Z,20.90
2022-12-18T08:20:54.071Z,19.97
2022-12-18T08:23:20.501Z,20.80
2022-12-18T08:25:47.244Z,17.10
2022-12-18T08:28:13.951Z,22.17
2022-12-18T08:30:40.386Z,16.83
2022-12-18T08:33:07.311Z,22.50
2022-12-18T08:35:41.085Z,18.77
2022-12-18T08:38:10.527Z,19.10
2022-12-18T08:40:37.004Z,19.27
2022-12-18T08:43:22.160Z,26.20
2022-12-18T08:45:48.659Z,20.07
2022-12-18T08:48:20.597Z,21.20
2022-12-18T08:50:58.913Z,20.90
2022-12-18T08:53:25.372Z,18.50
2022-12-18T08:55:51.826Z,19.07
2022-12-18T08:58:18.262Z,19.13
2022-12-18T09:00:44.913Z,20.23
2022-12-18T09:03:15.824Z,24.17
2022-12-18T09:05:42.376Z,19.60
2022-12-18T09:08:08.984Z,21.43
2022-12-18T09:10:43.567Z,23.90
2022-12-18T09:13:11.308Z,20.63
2022-12-18T09:15:54.410Z,21.33
2022-12-18T09:18:22.265Z,19.20
2022-12-18T09:20:48.892Z,18.40
2022-12-18T09:23:15.486Z,20.47
2022-12-18T09:25:42.028Z,21.90
2022-12-18T09:28:16.192Z,19.80
2022-12-18T09:30:47.767Z,21.17
2022-12-18T09:33:14.645Z,21.40
2022-12-18T09:35:41.984Z,23.13
2022-12-18T09:38:09.941Z,21.63
2022-12-18T09:40:42.473Z,22.10
2022-12-18T09:43:16.115Z,22.90
2022-12-18T09:45:46.084Z,24.03
2022-12-18T09:48:23.109Z,20.77
2022-12-18T09:50:50.269Z,25.70
2022-12-18T09:53:21.422Z,21.27
2022-12-18T09:55:48.646Z,18.80
2022-12-18T09:58:27.915Z,22.13
2022-12-18T10:00:54.728Z,23.73
2022-12-18T10:03:21.658Z,20.90
2022-12-18T10:06:11.970Z,21.77
2022-12-18T10:08:46.025Z,20.73
2022-12-18T10:11:29.160Z,27.43
2022-12-18T10:14:07.729Z,22.23
2022-12-18T10:16:43.688Z,25.53
2022-12-18T10:19:19.322Z,18.23
2022-12-18T10:22:11.756Z,20.77
2022-12-18T10:24:49.918Z,20.60
2022-12-18T10:27:18.624Z,19.83
2022-12-18T10:29:45.847Z,21.00
2022-12-18T10:32:18.459Z,17.43
2022-12-18T10:34:51.286Z,21.70
2022-12-18T10:37:26.209Z,20.17
2022-12-18T10:40:22.327Z,21.40
2022-12-18T10:43:05.367Z,22.50
2022-12-18T10:45:31.959Z,21.13
2022-12-18T10:47:59.004Z,17.23
2022-12-18T10:50:54.008Z,19.37
2022-12-18T10:53:25.448Z,20.27
2022-12-18T10:55:53.566Z,21.13
2022-12-18T10:58:33.254Z,20.83
2022-12-18T11:01:04.288Z,19.50
2022-12-18T11:03:33.640Z,19.03
2022-12-18T11:06:10.064Z,21.50
2022-12-18T11:08:37.566Z,22.33
2022-12-18T11:11:05.530Z,22.50
2022-12-18T11:13:32.962Z,18.50
2022-12-18T11:16:00.228Z,18.17
2022-12-18T11:18:29.745Z,21.70
2022-12-18T11:21:12.743Z,18.80
2022-12-18T11:23:48.018Z,20.17
2022-12-18T11:26:14.588Z,20.10
2022-12-18T11:28:50.850Z,19.80
2022-12-18T11:31:28.919Z,17.47
2022-12-18T11:36:48.522Z,21.50
2022-12-18T11:39:40.713Z,23.80
2022-12-18T11:42:35.667Z,19.13
2022-12-18T11:45:15.624Z,19.57
2022-12-18T11:47:50.757Z,17.70
2022-12-18T11:50:20.505Z,18.03
2022-12-18T11:52:49.350Z,16.40
2022-12-18T11:55:32.552Z,16.83
2022-12-18T11:58:31.293Z,14.77
2022-12-18T12:01:19.909Z,13.97
2022-12-18T12:04:13.385Z,16.10
2022-12-18T12:07:10.802Z,14.70
2022-12-18T12:10:01.013Z,18.30
2022-12-18T12:12:51.649Z,18.30
2022-12-18T12:15:27.048Z,17.00
2022-12-18T12:17:59.431Z,19.43
2022-12-18T12:20:38.107Z,16.07
2022-12-18T12:23:40.731Z,17.90
2022-12-18T12:26:28.047Z,16.17
2022-12-18T12:29:09.210Z,14.63
2022-12-18T12:31:58.596Z,15.17
2022-12-18T12:34:34.523Z,14.87
2022-12-18T12:37:23.932Z,15.60
2022-12-18T12:39:52.196Z,17.77
2022-12-18T12:42:57.029Z,13.13
2022-12-18T12:45:43.285Z,13.50
2022-12-18T12:48:28.753Z,16.03
2022-12-18T12:50:56.141Z,18.10
2022-12-18T12:53:27.934Z,15.13
2022-12-18T12:55:55.597Z,17.20
2022-12-18T12:58:32.669Z,15.57
2022-12-18T13:01:28.118Z,17.93
2022-12-18T13:04:04.997Z,13.63
2022-12-18T13:06:49.137Z,18.27
2022-12-18T13:09:15.576Z,18.77
2022-12-18T13:12:04.424Z,15.93
2022-12-18T13:14:37.016Z,16.87
2022-12-18T13:17:17.797Z,19.23
2022-12-18T13:19:48.413Z,15.03
2022-12-18T13:22:29.387Z,17.30
2022-12-18T13:24:55.896Z,16.23
2022-12-18T13:27:44.624Z,18.60
2022-12-18T13:30:33.097Z,15.13
2022-12-18T13:33:21.093Z,17.43
2022-12-18T13:35:47.744Z,14.77
2022-12-18T13:38:24.530Z,17.90
2022-12-18T13:40:51.186Z,24.00
2022-12-18T13:43:23.266Z,20.83
2022-12-18T13:46:06.445Z,22.13
2022-12-18T13:48:35.282Z,20.73
2022-12-18T13:51:04.353Z,17.73
2022-12-18T13:53:34.485Z,16.37
2022-12-18T13:56:01.237Z,18.33
2022-12-18T13:58:27.721Z,20.23
2022-12-18T14:00:54.221Z,17.47
2022-12-18T14:03:24.165Z,17.27
2022-12-18T14:06:00.242Z,18.13
2022-12-18T14:08:31.936Z,16.83
2022-12-18T14:10:58.426Z,17.87
2022-12-18T14:13:30.685Z,17.47
2022-12-18T14:15:59.222Z,17.03
2022-12-18T14:18:46.485Z,21.17
2022-12-18T14:21:23.083Z,17.77
2022-12-18T14:23:50.115Z,17.50
2022-12-18T14:26:30.767Z,19.73
2022-12-18T14:28:58.975Z,18.77
2022-12-18T14:31:27.445Z,19.93
2022-12-18T14:33:54.481Z,17.83
2022-12-18T14:36:26.609Z,18.37
2022-12-18T14:38:54.907Z,19.27
2022-12-18T14:41:22.330Z,15.67
2022-12-18T14:43:50.603Z,17.90
2022-12-18T14:46:37.081Z,14.07
2022-12-18T14:49:19.797Z,15.73
2022-12-18T14:52:06.470Z,15.53
2022-12-18T14:54:35.211Z,20.10
2022-12-18T14:57:24.056Z,14.87
2022-12-18T14:59:51.250Z,20.67
2022-12-18T15:02:26.706Z,20.77
2022-12-18T15:05:25.660Z,19.57
2022-12-18T15:07:53.926Z,18.10
2022-12-18T15:10:25.319Z,16.10
2022-12-18T15:12:57.744Z,18.47
2022-12-18T15:15:43.328Z,20.93
2022-12-18T15:18:11.246Z,15.00
2022-12-18T15:20:56.160Z,20.50
2022-12-18T15:23:25.311Z,19.10
2022-12-18T15:26:09.947Z,19.17
2022-12-18T15:28:41.260Z,17.93
2022-12-18T15:31:14.989Z,17.10
2022-12-18T15:33:51.385Z,20.50
2022-12-18T15:36:19.838Z,18.57
2022-12-18T15:38:55.498Z,18.30
2022-12-18T15:41:34.080Z,17.47
2022-12-18T15:44:03.885Z,19.40
2022-12-18T15:46:31.661Z,22.00
2022-12-18T15:49:02.230Z,15.23
2022-12-18T15:51:36.803Z,20.30
2022-12-18T15:54:05.493Z,17.13
2022-12-18T15:56:50.589Z,18.90
2022-12-18T15:59:20.270Z,18.27
2022-12-18T16:01:49.215Z,22.07
2022-12-18T16:04:17.609Z,16.67
2022-12-18T16:07:13.251Z,18.10
2022-12-18T16:09:30.618Z,21.97
2022-12-18T16:11:57.047Z,18.33
2022-12-18T16:14:27.541Z,22.57
2022-12-18T16:17:02.488Z,17.63
2022-12-18T16:19:29.735Z,19.63
2022-12-18T16:21:57.763Z,18.23
2022-12-18T16:24:29.840Z,18.43
2022-12-18T16:26:58.648Z,18.37
2022-12-18T16:29:28.129Z,18.83
2022-12-18T16:31:55.848Z,21.63
2022-12-18T16:34:31.469Z,17.07
2022-12-18T16:37:05.455Z,20.63
2022-12-18T16:39:35.814Z,20.13
2022-12-18T16:42:05.809Z,20.50
2022-12-18T16:44:33.535Z,22.10
2022-12-18T16:47:02.705Z,18.73
2022-12-18T16:49:29.728Z,29.30
2022-12-18T16:51:56.382Z,21.47
2022-12-18T16:54:22.959Z,20.83
2022-12-18T16:56:51.547Z,21.40
2022-12-18T16:59:18.200Z,20.30
2022-12-18T17:01:44.856Z,17.53
2022-12-18T17:04:11.427Z,17.30
2022-12-18T17:06:42.860Z,22.23
2022-12-18T17:09:12.467Z,18.37
2022-12-18T17:11:39.004Z,19.00
2022-12-18T17:14:17.062Z,15.67
2022-12-18T17:16:43.882Z,20.73
2022-12-18T17:19:16.770Z,19.23
2022-12-18T17:21:44.693Z,19.43
2022-12-18T17:24:11.133Z,23.87
2022-12-18T17:26:38.100Z,21.20
2022-12-18T17:29:04.660Z,20.20
2022-12-18T17:31:32.061Z,20.60
2022-12-18T17:33:58.776Z,17.37
2022-12-18T17:36:28.881Z,20.17
2022-12-18T17:38:57.467Z,19.40
2022-12-18T17:41:24.795Z,28.53
2022-12-18T17:43:52.576Z,24.60
2022-12-18T17:46:19.198Z,19.30
2022-12-18T17:48:46.035Z,18.53
2022-12-18T17:51:12.481Z,20.27
2022-12-18T17:53:42.145Z,24.40
2022-12-18T17:56:12.591Z,19.77
2022-12-18T17:58:40.153Z,24.13
2022-12-18T18:01:07.384Z,17.43
2022-12-18T18:03:37.400Z,20.37
2022-12-18T18:06:04.826Z,20.63
2022-12-18T18:08:31.981Z,24.37
2022-12-18T18:11:21.263Z,29.40
2022-12-18T18:14:02.953Z,22.87
2022-12-18T18:16:41.201Z,20.37
2022-12-18T18:19:14.186Z,22.97
2022-12-18T18:21:42.295Z,17.83
2022-12-18T18:24:10.568Z,23.30
2022-12-18T18:26:37.525Z,25.03
2022-12-18T18:29:06.780Z,26.40
2022-12-18T18:31:35.720Z,22.07
2022-12-18T18:34:13.100Z,20.67
2022-12-18T18:36:39.480Z,22.30
2022-12-18T18:39:05.922Z,21.57
2022-12-18T18:41:35.834Z,31.57
2022-12-18T18:44:02.501Z,24.37
2022-12-18T18:46:28.942Z,20.40
2022-12-18T18:48:55.630Z,23.53
2022-12-18T18:51:22.620Z,19.90
2022-12-18T18:53:51.631Z,22.27
2022-12-18T18:59:07.568Z,22.27
2022-12-18T19:01:34.097Z,23.30
2022-12-18T19:04:00.919Z,27.87
2022-12-18T19:06:28.455Z,20.23
2022-12-18T19:08:57.201Z,22.73
2022-12-18T19:11:44.141Z,24.67
2022-12-18T19:14:12.321Z,21.07
2022-12-18T19:16:38.952Z,19.73
2022-12-18T19:19:06.252Z,19.37
2022-12-18T19:21:34.303Z,20.13
2022-12-18T19:24:02.667Z,22.90
2022-12-18T19:26:29.871Z,20.77
2022-12-18T19:29:07.791Z,22.97
2022-12-18T19:31:36.765Z,19.83
2022-12-18T19:34:06.565Z,20.60
2022-12-18T19:36:34.595Z,25.67
2022-12-18T19:39:12.080Z,19.90
2022-12-18T19:41:38.589Z,22.53
2022-12-18T19:44:08.155Z,22.00
2022-12-18T19:46:35.194Z,23.97
2022-12-18T19:49:01.724Z,21.67
2022-12-18T19:51:29.781Z,19.73
2022-12-18T19:53:59.316Z,22.27
2022-12-18T19:56:29.521Z,18.13
2022-12-18T19:58:56.225Z,20.83
2022-12-18T20:01:24.564Z,17.90
2022-12-18T20:03:53.641Z,22.30
2022-12-18T20:06:34.382Z,20.57
2022-12-18T20:09:04.255Z,18.90
2022-12-18T20:11:32.280Z,19.53
2022-12-18T20:13:58.646Z,19.10
2022-12-18T20:16:25.109Z,20.90
2022-12-18T20:18:52.371Z,18.80
2022-12-18T20:21:19.321Z,18.17
2022-12-18T20:23:45.839Z,20.40
2022-12-18T20:26:12.348Z,18.20
2022-12-18T20:28:40.092Z,21.97
2022-12-18T20:31:08.430Z,18.93
2022-12-18T20:33:37.149Z,19.13
2022-12-18T20:36:06.525Z,23.30
2022-12-18T20:38:34.726Z,20.07
2022-12-18T20:41:02.465Z,27.77
2022-12-18T20:43:30.048Z,19.67
2022-12-18T20:46:03.486Z,39.70
2022-12-18T20:48:30.486Z,27.33
2022-12-18T20:51:02.120Z,19.87
2022-12-18T20:53:30.490Z,17.00
2022-12-18T20:55:56.933Z,16.67
2022-12-18T20:58:23.575Z,16.57
2022-12-18T21:00:50.143Z,16.40
2022-12-18T21:03:16.811Z,16.33
2022-12-18T21:05:43.438Z,17.73
2022-12-18T21:08:10.134Z,16.37
2022-12-18T21:10:39.191Z,17.40
2022-12-18T21:13:06.812Z,17.23
2022-12-18T21:15:35.897Z,18.33
2022-12-18T21:18:02.326Z,20.87
2022-12-18T21:20:28.915Z,17.60
2022-12-18T21:22:55.583Z,23.07
2022-12-18T21:25:25.709Z,20.47
2022-12-18T21:27:52.135Z,20.83
2022-12-18T21:30:18.714Z,18.47
2022-12-18T21:32:45.109Z,17.60
2022-12-18T21:35:11.649Z,20.30
2022-12-18T21:37:38.226Z,18.80
2022-12-18T21:40:06.009Z,16.20
2022-12-18T21:42:51.045Z,17.57
2022-12-18T21:45:17.469Z,16.50
2022-12-18T21:47:43.893Z,18.43
2022-12-18T21:50:10.281Z,18.83
2022-12-18T21:52:36.946Z,18.07
2022-12-18T21:55:09.079Z,16.37
2022-12-18T21:57:37.375Z,19.87
2022-12-18T22:00:05.067Z,17.73
2022-12-18T22:02:32.575Z,19.03
2022-12-18T22:04:59.213Z,19.13
2022-12-18T22:07:26.591Z,18.40
2022-12-18T22:09:53.005Z,17.50
2022-12-18T22:12:35.782Z,16.37
2022-12-18T22:15:10.742Z,17.80
2022-12-18T22:17:38.916Z,15.27
2022-12-18T22:20:05.716Z,20.20
2022-12-18T22:22:32.109Z,15.77
2022-12-18T22:24:59.519Z,17.27
2022-12-18T22:27:25.915Z,19.00
2022-12-18T22:30:04.459Z,16.47
2022-12-18T22:32:32.332Z,16.40
2022-12-18T22:35:05.269Z,19.00
2022-12-18T22:37:33.796Z,19.40
2022-12-18T22:40:03.262Z,19.40
2022-12-18T22:42:31.323Z,17.67
2022-12-18T22:44:57.737Z,17.10
2022-12-18T22:47:29.260Z,17.87
2022-12-18T22:49:56.349Z,17.97
2022-12-18T22:52:23.437Z,18.63
2022-12-18T22:54:51.391Z,16.93
2022-12-18T22:57:20.046Z,21.60
2022-12-18T22:59:46.430Z,17.20
2022-12-18T23:02:12.929Z,19.23
2022-12-18T23:04:39.757Z,18.57
2022-12-18T23:07:06.672Z,15.17
2022-12-18T23:09:33.665Z,15.63
2022-12-18T23:12:00.596Z,19.53
2022-12-18T23:14:28.199Z,16.67
2022-12-18T23:16:54.831Z,15.27
2022-12-18T23:19:22.698Z,17.23
2022-12-18T23:21:50.516Z,14.80
2022-12-18T23:24:16.934Z,18.27
2022-12-18T23:26:43.395Z,16.93
2022-12-18T23:29:09.956Z,18.03
2022-12-18T23:31:38.674Z,20.47
2022-12-18T23:34:05.831Z,15.03
2022-12-18T23:36:37.641Z,17.63
2022-12-18T23:39:29.124Z,18.10
2022-12-18T23:41:58.128Z,19.23
2022-12-18T23:44:24.745Z,21.77
2022-12-18T23:46:51.258Z,20.67
2022-12-18T23:49:17.688Z,21.00
2022-12-18T23:51:44.147Z,22.33
2022-12-18T23:54:10.607Z,18.30
2022-12-18T23:56:37.129Z,22.17
2022-12-18T23:59:03.686Z,18.70
